sensor_id;sensor_type;location;lat;lon;timestamp;P1;durP1;ratioP1;P2;durP2;ratioP2
74152;SDS011;62505;46.070;14.492;2023-03-26T00:01:58;2.70;;;1.83;;
74152;SDS011;62505;46.070;14.492;2023-03-26T00:04:26;3.17;;;2.15;;
74152;SDS011;62505;46.070;14.492;2023-03-26T00:06:53;3.92;;;2.22;;
74152;SDS011;62505;46.070;14.492;2023-03-26T00:09:21;2.70;;;2.17;;
74152;SDS011;62505;46.070;14.492;2023-03-26T00:11:48;2.33;;;2.13;;
74152;SDS011;62505;46.070;14.492;2023-03-26T00:14:15;2.22;;;1.75;;
74152;SDS011;62505;46.070;14.492;2023-03-26T00:16:42;3.22;;;1.98;;
74152;SDS011;62505;46.070;14.492;2023-03-26T00:19:11;2.50;;;1.90;;
74152;SDS011;62505;46.070;14.492;2023-03-26T00:21:40;3.47;;;1.90;;
74152;SDS011;62505;46.070;14.492;2023-03-26T00:24:08;2.28;;;1.70;;
74152;SDS011;62505;46.070;14.492;2023-03-26T00:26:38;2.42;;;1.77;;
74152;SDS011;62505;46.070;14.492;2023-03-26T00:29:06;2.85;;;2.08;;
74152;SDS011;62505;46.070;14.492;2023-03-26T00:31:34;6.15;;;2.00;;
74152;SDS011;62505;46.070;14.492;2023-03-26T00:34:03;4.00;;;2.17;;
74152;SDS011;62505;46.070;14.492;2023-03-26T00:36:31;3.10;;;2.38;;
74152;SDS011;62505;46.070;14.492;2023-03-26T00:39:01;3.80;;;2.40;;
74152;SDS011;62505;46.070;14.492;2023-03-26T00:41:30;4.32;;;1.90;;
74152;SDS011;62505;46.070;14.492;2023-03-26T00:44:01;2.15;;;1.65;;
74152;SDS011;62505;46.070;14.492;2023-03-26T00:46:28;2.50;;;1.88;;
74152;SDS011;62505;46.070;14.492;2023-03-26T00:48:56;2.35;;;1.83;;
74152;SDS011;62505;46.070;14.492;2023-03-26T00:51:25;3.17;;;2.08;;
74152;SDS011;62505;46.070;14.492;2023-03-26T00:53:53;2.25;;;1.80;;
74152;SDS011;62505;46.070;14.492;2023-03-26T00:56:22;2.72;;;2.03;;
74152;SDS011;62505;46.070;14.492;2023-03-26T00:58:49;4.50;;;2.25;;
74152;SDS011;62505;46.070;14.492;2023-03-26T01:01:17;3.25;;;1.92;;
74152;SDS011;62505;46.070;14.492;2023-03-26T01:03:51;3.35;;;2.33;;
74152;SDS011;62505;46.070;14.492;2023-03-26T01:06:23;3.22;;;2.08;;
74152;SDS011;62505;46.070;14.492;2023-03-26T01:08:57;4.93;;;2.05;;
74152;SDS011;62505;46.070;14.492;2023-03-26T01:11:30;2.33;;;1.85;;
74152;SDS011;62505;46.070;14.492;2023-03-26T01:14:00;2.47;;;1.98;;
74152;SDS011;62505;46.070;14.492;2023-03-26T01:16:33;2.45;;;1.80;;
74152;SDS011;62505;46.070;14.492;2023-03-26T01:19:03;2.15;;;1.75;;
74152;SDS011;62505;46.070;14.492;2023-03-26T01:21:34;3.35;;;2.25;;
74152;SDS011;62505;46.070;14.492;2023-03-26T01:24:05;2.92;;;2.10;;
74152;SDS011;62505;46.070;14.492;2023-03-26T01:26:37;2.63;;;2.17;;
74152;SDS011;62505;46.070;14.492;2023-03-26T01:29:20;2.47;;;2.00;;
74152;SDS011;62505;46.070;14.492;2023-03-26T01:31:56;2.63;;;1.90;;
74152;SDS011;62505;46.070;14.492;2023-03-26T01:34:36;2.67;;;1.90;;
74152;SDS011;62505;46.070;14.492;2023-03-26T01:37:14;2.40;;;1.88;;
74152;SDS011;62505;46.070;14.492;2023-03-26T01:39:50;3.28;;;1.77;;
74152;SDS011;62505;46.070;14.492;2023-03-26T01:42:24;2.33;;;1.90;;
74152;SDS011;62505;46.070;14.492;2023-03-26T01:44:56;2.83;;;2.13;;
74152;SDS011;62505;46.070;14.492;2023-03-26T01:47:28;3.60;;;2.00;;
74152;SDS011;62505;46.070;14.492;2023-03-26T01:49:57;2.58;;;2.25;;
74152;SDS011;62505;46.070;14.492;2023-03-26T01:52:24;2.30;;;1.67;;
74152;SDS011;62505;46.070;14.492;2023-03-26T01:54:53;2.78;;;1.90;;
74152;SDS011;62505;46.070;14.492;2023-03-26T01:57:23;2.78;;;2.15;;
74152;SDS011;62505;46.070;14.492;2023-03-26T02:00:02;2.08;;;1.80;;
74152;SDS011;62505;46.070;14.492;2023-03-26T02:02:40;2.63;;;1.85;;
74152;SDS011;62505;46.070;14.492;2023-03-26T02:05:16;2.10;;;1.73;;
74152;SDS011;62505;46.070;14.492;2023-03-26T02:07:48;2.88;;;2.00;;
74152;SDS011;62505;46.070;14.492;2023-03-26T02:10:24;2.05;;;1.67;;
74152;SDS011;62505;46.070;14.492;2023-03-26T02:12:53;1.63;;;1.48;;
74152;SDS011;62505;46.070;14.492;2023-03-26T02:15:21;2.92;;;2.38;;
74152;SDS011;62505;46.070;14.492;2023-03-26T02:17:48;3.95;;;2.08;;
74152;SDS011;62505;46.070;14.492;2023-03-26T02:20:17;3.33;;;2.20;;
74152;SDS011;62505;46.070;14.492;2023-03-26T02:22:45;2.30;;;1.95;;
74152;SDS011;62505;46.070;14.492;2023-03-26T02:25:13;3.25;;;1.85;;
74152;SDS011;62505;46.070;14.492;2023-03-26T02:27:44;2.67;;;1.70;;
74152;SDS011;62505;46.070;14.492;2023-03-26T02:30:14;2.88;;;1.95;;
74152;SDS011;62505;46.070;14.492;2023-03-26T02:32:42;3.22;;;2.08;;
74152;SDS011;62505;46.070;14.492;2023-03-26T02:35:09;2.50;;;1.83;;
74152;SDS011;62505;46.070;14.492;2023-03-26T02:37:37;2.03;;;1.70;;
74152;SDS011;62505;46.070;14.492;2023-03-26T02:40:05;2.45;;;2.00;;
74152;SDS011;62505;46.070;14.492;2023-03-26T02:42:35;3.08;;;2.40;;
74152;SDS011;62505;46.070;14.492;2023-03-26T02:45:05;3.17;;;2.00;;
74152;SDS011;62505;46.070;14.492;2023-03-26T02:47:32;4.47;;;2.30;;
74152;SDS011;62505;46.070;14.492;2023-03-26T02:49:59;3.67;;;2.00;;
74152;SDS011;62505;46.070;14.492;2023-03-26T02:52:27;2.30;;;1.95;;
74152;SDS011;62505;46.070;14.492;2023-03-26T02:54:55;2.80;;;2.25;;
74152;SDS011;62505;46.070;14.492;2023-03-26T02:57:23;2.13;;;1.80;;
74152;SDS011;62505;46.070;14.492;2023-03-26T02:59:50;3.47;;;2.13;;
74152;SDS011;62505;46.070;14.492;2023-03-26T03:02:19;2.72;;;1.83;;
74152;SDS011;62505;46.070;14.492;2023-03-26T03:04:48;4.13;;;2.40;;
74152;SDS011;62505;46.070;14.492;2023-03-26T03:07:15;2.17;;;1.98;;
74152;SDS011;62505;46.070;14.492;2023-03-26T03:09:42;2.35;;;1.88;;
74152;SDS011;62505;46.070;14.492;2023-03-26T03:12:09;2.10;;;1.90;;
74152;SDS011;62505;46.070;14.492;2023-03-26T03:14:36;2.17;;;1.85;;
74152;SDS011;62505;46.070;14.492;2023-03-26T03:17:04;3.70;;;2.30;;
74152;SDS011;62505;46.070;14.492;2023-03-26T03:19:33;3.38;;;2.10;;
74152;SDS011;62505;46.070;14.492;2023-03-26T03:22:01;2.83;;;2.00;;
74152;SDS011;62505;46.070;14.492;2023-03-26T03:24:28;2.72;;;2.15;;
74152;SDS011;62505;46.070;14.492;2023-03-26T03:26:58;2.40;;;2.00;;
74152;SDS011;62505;46.070;14.492;2023-03-26T03:29:25;2.30;;;1.90;;
74152;SDS011;62505;46.070;14.492;2023-03-26T03:31:52;2.75;;;2.05;;
74152;SDS011;62505;46.070;14.492;2023-03-26T03:34:19;3.28;;;1.80;;
74152;SDS011;62505;46.070;14.492;2023-03-26T03:36:48;2.92;;;1.90;;
74152;SDS011;62505;46.070;14.492;2023-03-26T03:39:15;2.58;;;2.03;;
74152;SDS011;62505;46.070;14.492;2023-03-26T03:41:43;2.65;;;2.10;;
74152;SDS011;62505;46.070;14.492;2023-03-26T03:44:10;2.63;;;2.10;;
74152;SDS011;62505;46.070;14.492;2023-03-26T03:46:37;3.90;;;2.00;;
74152;SDS011;62505;46.070;14.492;2023-03-26T03:49:04;2.75;;;2.00;;
74152;SDS011;62505;46.070;14.492;2023-03-26T03:51:31;2.30;;;1.85;;
74152;SDS011;62505;46.070;14.492;2023-03-26T03:54:00;2.85;;;2.25;;
74152;SDS011;62505;46.070;14.492;2023-03-26T03:56:28;3.28;;;2.33;;
74152;SDS011;62505;46.070;14.492;2023-03-26T03:58:54;2.90;;;2.15;;
74152;SDS011;62505;46.070;14.492;2023-03-26T04:01:23;2.22;;;1.90;;
74152;SDS011;62505;46.070;14.492;2023-03-26T04:03:50;2.95;;;2.20;;
74152;SDS011;62505;46.070;14.492;2023-03-26T04:06:17;2.65;;;2.00;;
74152;SDS011;62505;46.070;14.492;2023-03-26T04:08:44;2.75;;;2.20;;
74152;SDS011;62505;46.070;14.492;2023-03-26T04:11:13;3.38;;;2.20;;
74152;SDS011;62505;46.070;14.492;2023-03-26T04:13:40;3.60;;;2.38;;
74152;SDS011;62505;46.070;14.492;2023-03-26T04:16:07;2.80;;;2.20;;
74152;SDS011;62505;46.070;14.492;2023-03-26T04:18:35;2.20;;;1.85;;
74152;SDS011;62505;46.070;14.492;2023-03-26T04:21:03;2.38;;;1.90;;
74152;SDS011;62505;46.070;14.492;2023-03-26T04:23:31;2.88;;;1.98;;
74152;SDS011;62505;46.070;14.492;2023-03-26T04:26:00;2.58;;;1.90;;
74152;SDS011;62505;46.070;14.492;2023-03-26T04:28:31;2.38;;;2.17;;
74152;SDS011;62505;46.070;14.492;2023-03-26T04:31:07;3.13;;;2.33;;
74152;SDS011;62505;46.070;14.492;2023-03-26T04:33:38;2.15;;;1.90;;
74152;SDS011;62505;46.070;14.492;2023-03-26T04:36:05;2.72;;;2.10;;
74152;SDS011;62505;46.070;14.492;2023-03-26T04:38:36;4.65;;;2.10;;
74152;SDS011;62505;46.070;14.492;2023-03-26T04:41:08;2.15;;;1.80;;
74152;SDS011;62505;46.070;14.492;2023-03-26T04:43:38;3.10;;;2.25;;
74152;SDS011;62505;46.070;14.492;2023-03-26T04:46:06;2.72;;;1.90;;
74152;SDS011;62505;46.070;14.492;2023-03-26T04:48:34;2.40;;;1.92;;
74152;SDS011;62505;46.070;14.492;2023-03-26T04:51:02;3.05;;;2.13;;
74152;SDS011;62505;46.070;14.492;2023-03-26T04:53:31;2.00;;;1.73;;
74152;SDS011;62505;46.070;14.492;2023-03-26T04:56:02;2.83;;;1.98;;
74152;SDS011;62505;46.070;14.492;2023-03-26T04:58:33;2.70;;;2.08;;
74152;SDS011;62505;46.070;14.492;2023-03-26T05:01:02;5.18;;;2.13;;
74152;SDS011;62505;46.070;14.492;2023-03-26T05:03:29;2.90;;;2.10;;
74152;SDS011;62505;46.070;14.492;2023-03-26T05:05:57;2.33;;;2.00;;
74152;SDS011;62505;46.070;14.492;2023-03-26T05:08:25;2.22;;;1.85;;
74152;SDS011;62505;46.070;14.492;2023-03-26T05:10:53;2.95;;;2.20;;
74152;SDS011;62505;46.070;14.492;2023-03-26T05:13:20;2.47;;;2.03;;
74152;SDS011;62505;46.070;14.492;2023-03-26T05:15:47;3.92;;;2.20;;
74152;SDS011;62505;46.070;14.492;2023-03-26T05:18:16;3.55;;;2.38;;
74152;SDS011;62505;46.070;14.492;2023-03-26T05:20:43;2.30;;;1.88;;
74152;SDS011;62505;46.070;14.492;2023-03-26T05:23:10;3.17;;;2.15;;
74152;SDS011;62505;46.070;14.492;2023-03-26T05:25:37;4.07;;;2.20;;
74152;SDS011;62505;46.070;14.492;2023-03-26T05:28:04;2.38;;;2.13;;
74152;SDS011;62505;46.070;14.492;2023-03-26T05:30:31;2.50;;;2.05;;
74152;SDS011;62505;46.070;14.492;2023-03-26T05:32:58;2.30;;;1.80;;
74152;SDS011;62505;46.070;14.492;2023-03-26T05:35:29;3.05;;;2.53;;
74152;SDS011;62505;46.070;14.492;2023-03-26T05:37:56;3.00;;;2.00;;
74152;SDS011;62505;46.070;14.492;2023-03-26T05:40:23;3.13;;;2.20;;
74152;SDS011;62505;46.070;14.492;2023-03-26T05:42:50;2.67;;;2.17;;
74152;SDS011;62505;46.070;14.492;2023-03-26T05:45:17;3.03;;;1.90;;
74152;SDS011;62505;46.070;14.492;2023-03-26T05:47:46;3.40;;;2.13;;
74152;SDS011;62505;46.070;14.492;2023-03-26T05:50:13;3.10;;;2.10;;
74152;SDS011;62505;46.070;14.492;2023-03-26T05:52:42;2.38;;;1.63;;
74152;SDS011;62505;46.070;14.492;2023-03-26T05:55:09;3.53;;;2.38;;
74152;SDS011;62505;46.070;14.492;2023-03-26T05:57:36;3.10;;;1.83;;
74152;SDS011;62505;46.070;14.492;2023-03-26T06:00:04;2.30;;;1.90;;
74152;SDS011;62505;46.070;14.492;2023-03-26T06:02:35;2.80;;;2.40;;
74152;SDS011;62505;46.070;14.492;2023-03-26T06:05:03;2.97;;;2.00;;
74152;SDS011;62505;46.070;14.492;2023-03-26T06:07:31;3.38;;;2.28;;
74152;SDS011;62505;46.070;14.492;2023-03-26T06:10:00;2.55;;;2.05;;
74152;SDS011;62505;46.070;14.492;2023-03-26T06:12:27;2.90;;;2.10;;
74152;SDS011;62505;46.070;14.492;2023-03-26T06:14:54;4.03;;;2.00;;
74152;SDS011;62505;46.070;14.492;2023-03-26T06:17:21;3.33;;;2.38;;
74152;SDS011;62505;46.070;14.492;2023-03-26T06:19:48;3.08;;;2.42;;
74152;SDS011;62505;46.070;14.492;2023-03-26T06:22:15;2.33;;;1.90;;
74152;SDS011;62505;46.070;14.492;2023-03-26T06:24:42;3.17;;;2.17;;
74152;SDS011;62505;46.070;14.492;2023-03-26T06:27:10;2.33;;;1.95;;
74152;SDS011;62505;46.070;14.492;2023-03-26T06:29:37;2.50;;;2.20;;
74152;SDS011;62505;46.070;14.492;2023-03-26T06:32:04;2.92;;;2.20;;
74152;SDS011;62505;46.070;14.492;2023-03-26T06:34:31;2.28;;;1.98;;
74152;SDS011;62505;46.070;14.492;2023-03-26T06:36:58;2.97;;;2.00;;
74152;SDS011;62505;46.070;14.492;2023-03-26T06:39:25;2.65;;;2.17;;
74152;SDS011;62505;46.070;14.492;2023-03-26T06:41:52;2.63;;;2.00;;
74152;SDS011;62505;46.070;14.492;2023-03-26T06:44:21;2.78;;;2.17;;
74152;SDS011;62505;46.070;14.492;2023-03-26T06:46:48;2.17;;;1.98;;
74152;SDS011;62505;46.070;14.492;2023-03-26T06:49:15;2.03;;;1.70;;
74152;SDS011;62505;46.070;14.492;2023-03-26T06:51:42;2.95;;;2.50;;
74152;SDS011;62505;46.070;14.492;2023-03-26T06:54:10;2.13;;;1.85;;
74152;SDS011;62505;46.070;14.492;2023-03-26T06:56:37;3.90;;;2.38;;
74152;SDS011;62505;46.070;14.492;2023-03-26T06:59:04;2.95;;;2.15;;
74152;SDS011;62505;46.070;14.492;2023-03-26T07:01:33;2.17;;;1.95;;
74152;SDS011;62505;46.070;14.492;2023-03-26T07:04:00;3.00;;;2.40;;
74152;SDS011;62505;46.070;14.492;2023-03-26T07:06:27;3.05;;;2.58;;
74152;SDS011;62505;46.070;14.492;2023-03-26T07:08:54;5.32;;;3.30;;
74152;SDS011;62505;46.070;14.492;2023-03-26T07:11:21;4.60;;;2.95;;
74152;SDS011;62505;46.070;14.492;2023-03-26T07:13:49;7.18;;;3.35;;
74152;SDS011;62505;46.070;14.492;2023-03-26T07:16:16;8.85;;;3.75;;
74152;SDS011;62505;46.070;14.492;2023-03-26T07:18:45;5.43;;;3.28;;
74152;SDS011;62505;46.070;14.492;2023-03-26T07:21:12;4.82;;;3.42;;
74152;SDS011;62505;46.070;14.492;2023-03-26T07:23:40;4.78;;;3.40;;
74152;SDS011;62505;46.070;14.492;2023-03-26T07:26:17;5.05;;;3.85;;
74152;SDS011;62505;46.070;14.492;2023-03-26T07:28:52;4.15;;;3.40;;
74152;SDS011;62505;46.070;14.492;2023-03-26T07:31:24;6.13;;;3.60;;
74152;SDS011;62505;46.070;14.492;2023-03-26T07:34:02;6.28;;;3.72;;
74152;SDS011;62505;46.070;14.492;2023-03-26T07:36:35;7.00;;;4.00;;
74152;SDS011;62505;46.070;14.492;2023-03-26T07:39:16;4.63;;;3.22;;
74152;SDS011;62505;46.070;14.492;2023-03-26T07:41:54;4.30;;;3.40;;
74152;SDS011;62505;46.070;14.492;2023-03-26T07:44:30;5.03;;;3.58;;
74152;SDS011;62505;46.070;14.492;2023-03-26T07:47:09;4.60;;;3.67;;
74152;SDS011;62505;46.070;14.492;2023-03-26T07:49:45;6.82;;;4.38;;
74152;SDS011;62505;46.070;14.492;2023-03-26T07:52:13;4.60;;;3.15;;
74152;SDS011;62505;46.070;14.492;2023-03-26T07:54:40;4.78;;;3.60;;
74152;SDS011;62505;46.070;14.492;2023-03-26T07:57:10;6.82;;;3.80;;
74152;SDS011;62505;46.070;14.492;2023-03-26T07:59:48;5.63;;;4.00;;
74152;SDS011;62505;46.070;14.492;2023-03-26T08:02:26;7.70;;;3.42;;
74152;SDS011;62505;46.070;14.492;2023-03-26T08:05:18;9.07;;;3.83;;
74152;SDS011;62505;46.070;14.492;2023-03-26T08:07:55;7.07;;;4.15;;
74152;SDS011;62505;46.070;14.492;2023-03-26T08:10:30;6.10;;;3.92;;
74152;SDS011;62505;46.070;14.492;2023-03-26T08:13:06;7.78;;;4.03;;
74152;SDS011;62505;46.070;14.492;2023-03-26T08:15:44;4.78;;;3.42;;
74152;SDS011;62505;46.070;14.492;2023-03-26T08:18:21;6.00;;;4.03;;
74152;SDS011;62505;46.070;14.492;2023-03-26T08:20:58;12.38;;;4.55;;
74152;SDS011;62505;46.070;14.492;2023-03-26T08:23:31;6.18;;;3.75;;
74152;SDS011;62505;46.070;14.492;2023-03-26T08:26:04;7.25;;;3.88;;
74152;SDS011;62505;46.070;14.492;2023-03-26T08:28:41;6.90;;;4.07;;
74152;SDS011;62505;46.070;14.492;2023-03-26T08:31:21;5.90;;;3.47;;
74152;SDS011;62505;46.070;14.492;2023-03-26T08:33:54;5.28;;;3.72;;
74152;SDS011;62505;46.070;14.492;2023-03-26T08:36:22;5.65;;;3.63;;
74152;SDS011;62505;46.070;14.492;2023-03-26T08:38:49;6.03;;;3.67;;
74152;SDS011;62505;46.070;14.492;2023-03-26T08:53:48;9.23;;;6.78;;
74152;SDS011;62505;46.070;14.492;2023-03-26T08:56:43;10.90;;;7.88;;
74152;SDS011;62505;46.070;14.492;2023-03-26T09:02:38;11.80;;;7.68;;
74152;SDS011;62505;46.070;14.492;2023-03-26T09:05:43;10.55;;;6.60;;
74152;SDS011;62505;46.070;14.492;2023-03-26T09:11:37;9.18;;;6.28;;
74152;SDS011;62505;46.070;14.492;2023-03-26T09:14:46;9.30;;;5.93;;
74152;SDS011;62505;46.070;14.492;2023-03-26T09:21:06;9.55;;;5.90;;
74152;SDS011;62505;46.070;14.492;2023-03-26T09:24:10;8.90;;;5.80;;
74152;SDS011;62505;46.070;14.492;2023-03-26T09:27:08;7.93;;;5.97;;
74152;SDS011;62505;46.070;14.492;2023-03-26T09:30:00;8.20;;;6.25;;
74152;SDS011;62505;46.070;14.492;2023-03-26T09:33:01;8.63;;;5.30;;
74152;SDS011;62505;46.070;14.492;2023-03-26T09:35:50;7.70;;;5.40;;
74152;SDS011;62505;46.070;14.492;2023-03-26T09:38:28;7.68;;;5.55;;
74152;SDS011;62505;46.070;14.492;2023-03-26T09:41:15;8.95;;;5.45;;
74152;SDS011;62505;46.070;14.492;2023-03-26T09:44:07;7.50;;;5.20;;
74152;SDS011;62505;46.070;14.492;2023-03-26T09:47:16;6.57;;;5.10;;
74152;SDS011;62505;46.070;14.492;2023-03-26T09:50:18;6.45;;;5.07;;
74152;SDS011;62505;46.070;14.492;2023-03-26T09:53:11;10.35;;;5.25;;
74152;SDS011;62505;46.070;14.492;2023-03-26T09:55:48;10.30;;;5.20;;
74152;SDS011;62505;46.070;14.492;2023-03-26T09:58:37;6.75;;;4.97;;
74152;SDS011;62505;46.070;14.492;2023-03-26T10:01:15;6.90;;;5.30;;
74152;SDS011;62505;46.070;14.492;2023-03-26T10:03:55;7.07;;;5.30;;
74152;SDS011;62505;46.070;14.492;2023-03-26T10:09:21;6.22;;;5.03;;
74152;SDS011;62505;46.070;14.492;2023-03-26T10:14:45;6.40;;;4.80;;
74152;SDS011;62505;46.070;14.492;2023-03-26T10:17:25;8.13;;;4.90;;
74152;SDS011;62505;46.070;14.492;2023-03-26T10:20:05;6.57;;;4.82;;
74152;SDS011;62505;46.070;14.492;2023-03-26T10:22:53;8.05;;;4.95;;
74152;SDS011;62505;46.070;14.492;2023-03-26T10:25:42;8.40;;;4.85;;
74152;SDS011;62505;46.070;14.492;2023-03-26T10:28:43;6.78;;;4.57;;
74152;SDS011;62505;46.070;14.492;2023-03-26T10:31:25;6.35;;;4.43;;
74152;SDS011;62505;46.070;14.492;2023-03-26T10:34:08;7.95;;;5.18;;
74152;SDS011;62505;46.070;14.492;2023-03-26T10:36:50;7.25;;;4.90;;
74152;SDS011;62505;46.070;14.492;2023-03-26T10:39:28;6.60;;;4.97;;
74152;SDS011;62505;46.070;14.492;2023-03-26T10:42:15;7.45;;;4.43;;
74152;SDS011;62505;46.070;14.492;2023-03-26T10:45:10;7.20;;;5.00;;
74152;SDS011;62505;46.070;14.492;2023-03-26T10:47:54;6.30;;;4.18;;
74152;SDS011;62505;46.070;14.492;2023-03-26T10:50:43;7.10;;;4.50;;
74152;SDS011;62505;46.070;14.492;2023-03-26T10:53:21;8.32;;;5.07;;
74152;SDS011;62505;46.070;14.492;2023-03-26T10:55:56;6.32;;;4.78;;
74152;SDS011;62505;46.070;14.492;2023-03-26T10:58:34;8.95;;;4.53;;
74152;SDS011;62505;46.070;14.492;2023-03-26T11:01:05;6.30;;;4.32;;
74152;SDS011;62505;46.070;14.492;2023-03-26T11:03:44;7.10;;;5.10;;
74152;SDS011;62505;46.070;14.492;2023-03-26T11:06:25;9.27;;;5.43;;
74152;SDS011;62505;46.070;14.492;2023-03-26T11:08:59;18.67;;;5.97;;
74152;SDS011;62505;46.070;14.492;2023-03-26T11:11:31;22.35;;;6.53;;
74152;SDS011;62505;46.070;14.492;2023-03-26T11:14:07;11.98;;;6.05;;
74152;SDS011;62505;46.070;14.492;2023-03-26T11:16:45;13.75;;;6.30;;
74152;SDS011;62505;46.070;14.492;2023-03-26T11:19:20;19.75;;;5.95;;
74152;SDS011;62505;46.070;14.492;2023-03-26T11:21:55;16.27;;;6.28;;
74152;SDS011;62505;46.070;14.492;2023-03-26T11:24:35;15.32;;;6.97;;
74152;SDS011;62505;46.070;14.492;2023-03-26T11:27:20;12.65;;;5.90;;
74152;SDS011;62505;46.070;14.492;2023-03-26T11:30:00;27.33;;;6.35;;
74152;SDS011;62505;46.070;14.492;2023-03-26T11:32:38;12.52;;;6.22;;
74152;SDS011;62505;46.070;14.492;2023-03-26T11:35:08;11.60;;;5.78;;
74152;SDS011;62505;46.070;14.492;2023-03-26T11:37:45;10.95;;;6.13;;
74152;SDS011;62505;46.070;14.492;2023-03-26T11:40:20;13.27;;;6.25;;
74152;SDS011;62505;46.070;14.492;2023-03-26T11:42:54;14.55;;;6.00;;
74152;SDS011;62505;46.070;14.492;2023-03-26T11:45:26;14.02;;;6.68;;
74152;SDS011;62505;46.070;14.492;2023-03-26T11:47:56;13.23;;;6.22;;
74152;SDS011;62505;46.070;14.492;2023-03-26T11:50:30;26.25;;;7.38;;
74152;SDS011;62505;46.070;14.492;2023-03-26T11:53:08;19.10;;;7.07;;
74152;SDS011;62505;46.070;14.492;2023-03-26T11:55:38;13.63;;;6.05;;
74152;SDS011;62505;46.070;14.492;2023-03-26T11:58:13;18.00;;;6.47;;
74152;SDS011;62505;46.070;14.492;2023-03-26T12:00:52;16.45;;;5.57;;
74152;SDS011;62505;46.070;14.492;2023-03-26T12:03:20;14.40;;;6.97;;
74152;SDS011;62505;46.070;14.492;2023-03-26T12:05:49;16.40;;;6.10;;
74152;SDS011;62505;46.070;14.492;2023-03-26T12:08:19;11.07;;;5.93;;
74152;SDS011;62505;46.070;14.492;2023-03-26T12:10:57;16.42;;;5.68;;
74152;SDS011;62505;46.070;14.492;2023-03-26T12:13:35;19.35;;;6.20;;
74152;SDS011;62505;46.070;14.492;2023-03-26T12:16:11;17.08;;;6.70;;
74152;SDS011;62505;46.070;14.492;2023-03-26T12:18:40;17.08;;;7.20;;
74152;SDS011;62505;46.070;14.492;2023-03-26T12:21:09;12.02;;;6.72;;
74152;SDS011;62505;46.070;14.492;2023-03-26T12:23:43;19.83;;;9.23;;
74152;SDS011;62505;46.070;14.492;2023-03-26T12:26:17;16.52;;;7.80;;
74152;SDS011;62505;46.070;14.492;2023-03-26T12:28:46;15.93;;;7.45;;
74152;SDS011;62505;46.070;14.492;2023-03-26T12:31:15;15.75;;;7.80;;
74152;SDS011;62505;46.070;14.492;2023-03-26T12:33:45;16.77;;;7.35;;
74152;SDS011;62505;46.070;14.492;2023-03-26T12:36:29;15.02;;;8.00;;
74152;SDS011;62505;46.070;14.492;2023-03-26T12:39:01;16.80;;;8.73;;
74152;SDS011;62505;46.070;14.492;2023-03-26T12:41:53;19.00;;;7.78;;
74152;SDS011;62505;46.070;14.492;2023-03-26T12:44:21;17.33;;;7.93;;
74152;SDS011;62505;46.070;14.492;2023-03-26T12:47:05;14.25;;;7.53;;
74152;SDS011;62505;46.070;14.492;2023-03-26T12:49:34;17.20;;;8.07;;
74152;SDS011;62505;46.070;14.492;2023-03-26T12:52:06;15.25;;;8.80;;
74152;SDS011;62505;46.070;14.492;2023-03-26T12:54:45;16.98;;;9.05;;
74152;SDS011;62505;46.070;14.492;2023-03-26T12:57:20;17.02;;;8.15;;
74152;SDS011;62505;46.070;14.492;2023-03-26T12:59:51;18.38;;;8.60;;
74152;SDS011;62505;46.070;14.492;2023-03-26T13:02:30;15.52;;;8.35;;
74152;SDS011;62505;46.070;14.492;2023-03-26T13:05:35;18.95;;;8.63;;
74152;SDS011;62505;46.070;14.492;2023-03-26T13:08:22;17.05;;;7.63;;
74152;SDS011;62505;46.070;14.492;2023-03-26T13:11:21;17.08;;;7.88;;
74152;SDS011;62505;46.070;14.492;2023-03-26T13:13:59;15.75;;;7.63;;
74152;SDS011;62505;46.070;14.492;2023-03-26T13:16:38;16.42;;;8.07;;
74152;SDS011;62505;46.070;14.492;2023-03-26T13:19:12;14.95;;;8.30;;
74152;SDS011;62505;46.070;14.492;2023-03-26T13:21:52;15.88;;;7.93;;
74152;SDS011;62505;46.070;14.492;2023-03-26T13:24:30;17.17;;;8.10;;
74152;SDS011;62505;46.070;14.492;2023-03-26T13:27:10;17.10;;;8.18;;
74152;SDS011;62505;46.070;14.492;2023-03-26T13:29:45;24.98;;;12.18;;
74152;SDS011;62505;46.070;14.492;2023-03-26T13:32:22;23.05;;;11.13;;
74152;SDS011;62505;46.070;14.492;2023-03-26T13:35:03;23.90;;;11.38;;
74152;SDS011;62505;46.070;14.492;2023-03-26T13:37:40;17.40;;;9.57;;
74152;SDS011;62505;46.070;14.492;2023-03-26T13:40:15;17.77;;;9.40;;
74152;SDS011;62505;46.070;14.492;2023-03-26T13:42:54;18.23;;;9.35;;
74152;SDS011;62505;46.070;14.492;2023-03-26T13:45:35;18.50;;;9.30;;
74152;SDS011;62505;46.070;14.492;2023-03-26T13:48:13;19.33;;;9.23;;
74152;SDS011;62505;46.070;14.492;2023-03-26T13:50:43;19.60;;;10.07;;
74152;SDS011;62505;46.070;14.492;2023-03-26T13:53:23;19.48;;;10.00;;
74152;SDS011;62505;46.070;14.492;2023-03-26T13:55:55;15.57;;;9.20;;
74152;SDS011;62505;46.070;14.492;2023-03-26T13:58:27;17.20;;;9.15;;
74152;SDS011;62505;46.070;14.492;2023-03-26T14:01:01;16.65;;;9.05;;
74152;SDS011;62505;46.070;14.492;2023-03-26T14:03:35;16.38;;;8.68;;
74152;SDS011;62505;46.070;14.492;2023-03-26T14:06:11;17.15;;;10.32;;
74152;SDS011;62505;46.070;14.492;2023-03-26T14:08:45;18.60;;;9.45;;
74152;SDS011;62505;46.070;14.492;2023-03-26T14:11:19;14.60;;;8.13;;
74152;SDS011;62505;46.070;14.492;2023-03-26T14:13:55;15.27;;;9.20;;
74152;SDS011;62505;46.070;14.492;2023-03-26T14:16:30;19.80;;;9.45;;
74152;SDS011;62505;46.070;14.492;2023-03-26T14:19:04;21.00;;;9.85;;
74152;SDS011;62505;46.070;14.492;2023-03-26T14:21:49;14.52;;;8.10;;
74152;SDS011;62505;46.070;14.492;2023-03-26T14:27:27;14.85;;;8.88;;
74152;SDS011;62505;46.070;14.492;2023-03-26T14:30:08;17.17;;;8.60;;
74152;SDS011;62505;46.070;14.492;2023-03-26T14:32:56;18.05;;;8.73;;
74152;SDS011;62505;46.070;14.492;2023-03-26T14:35:35;17.42;;;9.35;;
74152;SDS011;62505;46.070;14.492;2023-03-26T14:38:21;17.90;;;8.93;;
74152;SDS011;62505;46.070;14.492;2023-03-26T14:41:12;17.27;;;9.00;;
74152;SDS011;62505;46.070;14.492;2023-03-26T14:43:56;18.83;;;9.27;;
74152;SDS011;62505;46.070;14.492;2023-03-26T14:46:51;16.00;;;9.75;;
74152;SDS011;62505;46.070;14.492;2023-03-26T14:49:40;18.13;;;9.15;;
74152;SDS011;62505;46.070;14.492;2023-03-26T14:52:45;16.15;;;8.30;;
74152;SDS011;62505;46.070;14.492;2023-03-26T14:55:15;18.98;;;8.38;;
74152;SDS011;62505;46.070;14.492;2023-03-26T14:58:02;20.65;;;9.07;;
74152;SDS011;62505;46.070;14.492;2023-03-26T15:01:06;18.80;;;9.25;;
74152;SDS011;62505;46.070;14.492;2023-03-26T15:13:23;16.35;;;8.45;;
74152;SDS011;62505;46.070;14.492;2023-03-26T15:16:07;16.70;;;8.95;;
74152;SDS011;62505;46.070;14.492;2023-03-26T15:19:13;15.98;;;7.57;;
74152;SDS011;62505;46.070;14.492;2023-03-26T15:22:31;16.58;;;8.07;;
74152;SDS011;62505;46.070;14.492;2023-03-26T15:25:35;15.95;;;8.40;;
74152;SDS011;62505;46.070;14.492;2023-03-26T15:31:48;18.27;;;8.50;;
74152;SDS011;62505;46.070;14.492;2023-03-26T15:37:58;12.82;;;7.72;;
74152;SDS011;62505;46.070;14.492;2023-03-26T15:40:55;17.25;;;8.05;;
74152;SDS011;62505;46.070;14.492;2023-03-26T15:43:41;13.40;;;7.82;;
74152;SDS011;62505;46.070;14.492;2023-03-26T15:46:49;15.38;;;7.50;;
74152;SDS011;62505;46.070;14.492;2023-03-26T15:49:28;13.50;;;7.18;;
74152;SDS011;62505;46.070;14.492;2023-03-26T15:52:07;14.32;;;7.65;;
74152;SDS011;62505;46.070;14.492;2023-03-26T15:54:45;15.10;;;7.85;;
74152;SDS011;62505;46.070;14.492;2023-03-26T15:57:24;13.52;;;7.35;;
74152;SDS011;62505;46.070;14.492;2023-03-26T15:59:58;14.02;;;7.10;;
74152;SDS011;62505;46.070;14.492;2023-03-26T16:02:40;12.48;;;7.10;;